Time;durP1;ratioP1;P1;durP2;ratioP2;P2;SDS_P1;SDS_P2;PMS_P1;PMS_P2;Temp;Humidity;BMP_temperature;BMP_pressure;BME280_temperature;BME280_humidity;BME280_pressure;Samples;Min_cycle;Max_cycle;Signal;HPM_P1;HPM_P2
2024/02/29 00:01:57;;;;;;;51.63;27.53;;;2.10;41.60;;;;;;5051450;28;20245;-70
2024/02/29 00:04:24;;;;;;;58.88;27.75;;;2.20;42.40;;;;;;5051201;28;20549;-69
2024/02/29 00:06:50;;;;;;;58.38;29.17;;;2.40;43.70;;;;;;5051452;28;20283;-68
2024/02/29 00:09:16;;;;;;;57.03;27.97;;;2.50;44.80;;;;;;5033679;28;20208;-69
2024/02/29 00:11:41;;;;;;;52.80;25.73;;;2.60;44.90;;;;;;5051125;28;20206;-69
2024/02/29 00:14:07;;;;;;;69.10;30.70;;;2.70;44.50;;;;;;5051253;28;20453;-69
2024/02/29 00:16:33;;;;;;;50.47;27.47;;;2.80;44.20;;;;;;5052480;28;20186;-69
2024/02/29 00:18:58;;;;;;;56.00;27.37;;;2.80;43.60;;;;;;5055403;28;20554;-69
2024/02/29 00:21:24;;;;;;;48.10;24.53;;;2.80;43.10;;;;;;5055435;28;20596;-69
2024/02/29 00:23:49;;;;;;;42.67;26.30;;;2.90;42.70;;;;;;5054860;28;20524;-69
2024/02/29 00:26:15;;;;;;;54.23;31.00;;;2.90;42.60;;;;;;5037374;28;20212;-70
2024/02/29 00:28:40;;;;;;;52.50;29.90;;;3.00;41.50;;;;;;5055035;28;20193;-68
2024/02/29 00:31:06;;;;;;;51.40;27.17;;;3.00;41.50;;;;;;5055040;28;20182;-69
2024/02/29 00:33:31;;;;;;;48.87;29.10;;;3.00;41.60;;;;;;5054509;28;20575;-69
2024/02/29 00:35:57;;;;;;;53.40;26.40;;;3.00;40.90;;;;;;5054739;28;20207;-69
2024/02/29 00:38:22;;;;;;;49.63;26.80;;;3.00;39.70;;;;;;5054900;28;20194;-69
2024/02/29 00:40:48;;;;;;;47.70;25.47;;;3.00;39.70;;;;;;5054689;28;20206;-68
2024/02/29 00:43:13;;;;;;;53.23;27.40;;;3.00;40.50;;;;;;5054375;28;20226;-70
2024/02/29 00:45:39;;;;;;;48.37;25.90;;;3.00;39.50;;;;;;5054599;28;20557;-69
2024/02/29 00:48:05;;;;;;;48.73;25.57;;;3.00;39.90;;;;;;5054553;28;20213;-69
2024/02/29 00:50:32;;;;;;;39.57;23.83;;;3.00;38.80;;;;;;5055041;28;20180;-68
2024/02/29 00:52:58;;;;;;;46.13;26.73;;;2.90;38.80;;;;;;5054203;28;20451;-68
2024/02/29 00:55:23;;;;;;;45.13;24.57;;;2.90;38.30;;;;;;5054285;28;20202;-69
2024/02/29 00:57:51;;;;;;;40.37;23.77;;;2.90;38.10;;;;;;5054462;28;20225;-69
2024/02/29 01:00:17;;;;;;;43.15;24.80;;;2.90;37.40;;;;;;5036727;28;20169;-71
2024/02/29 01:02:43;;;;;;;51.90;27.55;;;2.90;38.60;;;;;;5053999;28;20231;-68
2024/02/29 01:05:10;;;;;;;47.83;25.42;;;2.90;38.10;;;;;;5054502;28;20259;-68
2024/02/29 01:07:36;;;;;;;45.88;24.30;;;2.90;37.40;;;;;;5054352;28;20172;-68
2024/02/29 01:10:05;;;;;;;45.67;24.10;;;2.80;38.60;;;;;;5054141;28;20541;-68
2024/02/29 01:12:31;;;;;;;43.08;22.55;;;2.80;37.90;;;;;;5053919;28;20212;-68
2024/02/29 01:14:57;;;;;;;46.70;26.55;;;2.80;38.50;;;;;;5053711;28;20290;-68
2024/02/29 01:17:24;;;;;;;49.00;24.70;;;2.80;37.80;;;;;;5053965;28;20181;-68
2024/02/29 01:19:50;;;;;;;41.38;25.10;;;2.90;38.70;;;;;;5054023;28;20179;-68
2024/02/29 01:22:15;;;;;;;55.23;25.70;;;2.90;39.40;;;;;;5054062;28;20191;-68
2024/02/29 01:24:41;;;;;;;49.70;23.13;;;2.90;39.90;;;;;;5053855;28;20180;-67
2024/02/29 01:27:07;;;;;;;50.97;24.03;;;2.90;39.70;;;;;;5054101;28;20214;-68
2024/02/29 01:29:32;;;;;;;51.37;25.53;;;2.90;39.10;;;;;;5053363;28;20201;-68
2024/02/29 01:31:58;;;;;;;44.27;24.97;;;2.90;40.00;;;;;;5053557;28;20455;-68
2024/02/29 01:34:23;;;;;;;47.60;28.63;;;2.90;39.80;;;;;;5053843;28;20199;-69
2024/02/29 01:36:49;;;;;;;51.07;26.07;;;2.90;39.60;;;;;;5053765;28;20175;-68
2024/02/29 01:39:14;;;;;;;50.23;26.47;;;2.90;39.10;;;;;;5054414;28;20615;-69
2024/02/29 01:41:40;;;;;;;52.00;23.90;;;2.90;40.50;;;;;;5054120;28;20201;-68
2024/02/29 01:44:05;;;;;;;44.50;25.57;;;2.90;39.60;;;;;;5035617;28;20213;-68
2024/02/29 01:46:31;;;;;;;46.30;23.57;;;3.00;39.30;;;;;;5053674;28;20180;-68
2024/02/29 01:48:58;;;;;;;38.13;23.43;;;3.00;38.80;;;;;;5053513;28;20175;-68
2024/02/29 01:51:25;;;;;;;45.55;24.50;;;3.00;40.00;;;;;;5053529;28;20546;-68
2024/02/29 01:53:51;;;;;;;42.50;24.73;;;2.90;39.10;;;;;;5053089;28;20272;-67
2024/02/29 01:56:19;;;;;;;43.28;25.98;;;2.90;37.00;;;;;;5053391;28;20174;-68
2024/02/29 01:58:45;;;;;;;44.85;23.73;;;2.80;36.30;;;;;;5053393;28;20176;-68
2024/02/29 02:01:10;;;;;;;43.07;25.07;;;2.60;35.50;;;;;;5054003;28;20166;-69
2024/02/29 02:03:37;;;;;;;41.40;26.40;;;2.50;35.10;;;;;;5058548;28;20168;-69
2024/02/29 02:06:03;;;;;;;45.88;26.92;;;2.40;35.00;;;;;;5056056;28;20577;-68
2024/02/29 02:08:31;;;;;;;43.17;24.70;;;2.40;33.90;;;;;;5053412;28;20207;-68
2024/02/29 02:10:57;;;;;;;41.50;27.05;;;2.20;33.40;;;;;;5056722;28;20536;-68
2024/02/29 02:13:23;;;;;;;41.90;26.27;;;2.00;34.30;;;;;;5053040;28;20699;-68
2024/02/29 02:15:49;;;;;;;48.40;25.60;;;1.90;35.50;;;;;;5053272;28;20252;-68
2024/02/29 02:18:14;;;;;;;38.37;25.00;;;1.80;36.60;;;;;;5053483;28;20779;-68
2024/02/29 02:20:40;;;;;;;45.03;26.33;;;1.70;36.10;;;;;;5053498;28;20200;-67
2024/02/29 02:23:06;;;;;;;48.73;28.00;;;1.70;37.50;;;;;;5052559;28;20253;-68
2024/02/29 02:25:31;;;;;;;41.50;26.50;;;1.60;37.30;;;;;;5053030;28;20221;-68
2024/02/29 02:27:57;;;;;;;36.87;25.83;;;1.40;37.60;;;;;;5052840;28;20202;-68
2024/02/29 02:30:22;;;;;;;43.33;27.10;;;1.40;37.50;;;;;;5052974;28;20305;-68
2024/02/29 02:32:48;;;;;;;45.87;28.10;;;1.30;36.60;;;;;;5034470;28;20548;-68
2024/02/29 02:35:13;;;;;;;52.90;29.60;;;1.20;37.30;;;;;;5052553;28;20201;-69
2024/02/29 02:37:40;;;;;;;46.97;26.27;;;1.10;38.70;;;;;;5052545;28;20182;-68
2024/02/29 02:40:06;;;;;;;44.08;27.13;;;1.00;38.10;;;;;;5051771;28;20163;-68
2024/02/29 02:42:31;;;;;;;41.13;25.20;;;1.00;40.30;;;;;;5052263;28;20195;-68
2024/02/29 02:44:57;;;;;;;46.17;26.37;;;1.00;40.50;;;;;;5034490;28;20190;-69
2024/02/29 02:47:23;;;;;;;37.40;25.63;;;1.00;39.80;;;;;;5052580;28;20174;-69
2024/02/29 02:49:48;;;;;;;48.80;26.93;;;0.90;41.20;;;;;;5034616;28;20183;-68
2024/02/29 02:52:14;;;;;;;52.37;29.17;;;1.00;39.80;;;;;;5052275;28;20198;-69
2024/02/29 02:54:40;;;;;;;48.87;28.30;;;0.90;41.10;;;;;;5051960;28;20234;-68
2024/02/29 02:57:06;;;;;;;48.15;26.77;;;0.90;41.70;;;;;;5052317;28;20650;-68
2024/02/29 02:59:32;;;;;;;43.63;26.60;;;0.90;42.90;;;;;;5052291;28;20190;-68
2024/02/29 03:01:57;;;;;;;47.37;29.07;;;0.90;42.90;;;;;;5052025;28;20289;-67
2024/02/29 03:04:23;;;;;;;44.60;28.73;;;0.90;43.50;;;;;;5051929;28;20182;-67
2024/02/29 03:06:48;;;;;;;55.00;29.90;;;0.90;44.80;;;;;;5052075;28;20178;-67
2024/02/29 03:09:14;;;;;;;47.77;27.00;;;0.90;44.80;;;;;;5052036;28;20265;-69
2024/02/29 03:11:39;;;;;;;49.13;26.73;;;0.80;42.50;;;;;;5075231;22;20244;-69
2024/02/29 03:14:05;;;;;;;44.80;29.20;;;0.90;44.80;;;;;;5051737;28;20206;-70
2024/02/29 03:16:35;;;;;;;41.20;26.83;;;0.90;44.60;;;;;;5033915;28;20591;-69
2024/02/29 03:19:04;;;;;;;52.53;28.05;;;0.90;44.40;;;;;;5051829;28;20504;-69
2024/02/29 03:21:30;;;;;;;47.75;28.15;;;0.90;43.60;;;;;;5051578;28;20277;-69
2024/02/29 03:23:56;;;;;;;51.27;29.50;;;0.90;43.50;;;;;;5051507;28;20208;-69
2024/02/29 03:26:22;;;;;;;49.93;29.60;;;0.80;43.40;;;;;;5051937;28;20915;-68
2024/02/29 03:28:47;;;;;;;52.83;32.80;;;0.80;43.20;;;;;;5051794;28;20177;-69
2024/02/29 03:31:13;;;;;;;46.40;28.30;;;0.70;42.40;;;;;;5051475;28;20171;-70
2024/02/29 03:33:40;;;;;;;55.70;31.25;;;0.60;42.30;;;;;;5051186;28;20205;-70
2024/02/29 03:36:06;;;;;;;44.08;27.65;;;0.60;43.90;;;;;;5051418;28;20214;-69
2024/02/29 03:38:31;;;;;;;51.73;27.43;;;0.60;44.50;;;;;;5051969;28;20187;-69
2024/02/29 03:40:57;;;;;;;47.10;25.73;;;0.60;43.50;;;;;;5033635;28;20508;-70
2024/02/29 03:43:23;;;;;;;46.63;30.50;;;0.60;43.70;;;;;;5051107;28;20194;-69
2024/02/29 03:45:48;;;;;;;51.37;29.60;;;0.60;42.50;;;;;;5051545;28;20257;-69
2024/02/29 03:48:14;;;;;;;50.57;29.77;;;0.50;43.10;;;;;;5051402;28;20283;-69
2024/02/29 03:50:40;;;;;;;58.43;33.00;;;0.50;44.40;;;;;;5051390;28;20186;-69
2024/02/29 03:53:05;;;;;;;66.80;34.83;;;0.60;44.50;;;;;;5054787;28;20561;-70
2024/02/29 03:55:32;;;;;;;55.00;33.83;;;0.60;46.00;;;;;;5055422;28;20297;-69
2024/02/29 03:57:57;;;;;;;62.25;35.30;;;0.60;46.20;;;;;;5055313;28;20637;-69
2024/02/29 04:00:23;;;;;;;65.13;35.57;;;0.70;47.90;;;;;;5055245;28;20171;-68
2024/02/29 04:02:48;;;;;;;60.03;37.40;;;0.70;47.90;;;;;;5055030;28;20198;-69
2024/02/29 04:05:14;;;;;;;61.80;31.43;;;0.90;48.50;;;;;;5037300;28;20182;-68
2024/02/29 04:07:43;;;;;;;56.70;34.27;;;0.90;48.90;;;;;;5055251;28;20182;-68
2024/02/29 04:10:10;;;;;;;66.93;34.08;;;0.90;48.90;;;;;;5055157;28;20550;-68
2024/02/29 04:12:36;;;;;;;55.47;32.45;;;1.00;49.10;;;;;;5036951;28;20218;-69
2024/02/29 04:15:02;;;;;;;51.13;28.73;;;1.00;49.10;;;;;;5054690;28;20202;-70
2024/02/29 04:17:31;;;;;;;40.87;25.83;;;1.00;49.00;;;;;;5055009;28;20203;-71
2024/02/29 04:19:57;;;;;;;42.22;27.33;;;1.10;49.70;;;;;;5055113;28;20429;-70
2024/02/29 04:22:23;;;;;;;53.60;29.37;;;1.10;48.90;;;;;;5037227;28;20190;-70
2024/02/29 04:24:49;;;;;;;54.03;30.00;;;1.10;48.60;;;;;;5055033;28;20175;-69
2024/02/29 04:27:14;;;;;;;49.20;27.70;;;1.10;48.20;;;;;;5055141;28;20196;-69
2024/02/29 04:29:40;;;;;;;53.80;29.00;;;1.10;48.70;;;;;;5054918;28;20656;-69
2024/02/29 04:32:07;;;;;;;63.43;34.47;;;1.10;48.20;;;;;;5036648;28;20198;-71
2024/02/29 04:34:33;;;;;;;64.75;35.92;;;1.10;47.50;;;;;;5036681;28;20206;-69
2024/02/29 04:36:58;;;;;;;71.65;35.90;;;1.00;48.00;;;;;;5054731;28;20179;-69
2024/02/29 04:39:24;;;;;;;49.67;30.37;;;1.00;46.40;;;;;;5054755;28;20250;-70
2024/02/29 04:41:49;;;;;;;63.80;31.33;;;1.00;46.90;;;;;;5054540;28;20194;-69
2024/02/29 04:44:16;;;;;;;46.30;29.47;;;0.90;46.60;;;;;;5054262;28;20189;-69
2024/02/29 04:46:41;;;;;;;45.13;29.70;;;0.90;46.70;;;;;;5054431;28;20182;-70
2024/02/29 04:49:07;;;;;;;79.27;38.27;;;0.80;46.40;;;;;;5054543;28;20179;-69
2024/02/29 04:51:33;;;;;;;81.63;33.70;;;0.70;45.60;;;;;;5055579;28;20547;-71
2024/02/29 04:53:59;;;;;;;49.33;31.38;;;0.60;45.50;;;;;;5059390;28;20198;-71
2024/02/29 04:56:25;;;;;;;61.13;31.50;;;0.60;46.30;;;;;;5058777;28;20252;-71
2024/02/29 04:58:50;;;;;;;60.80;31.87;;;0.60;46.40;;;;;;5038701;28;20181;-70
2024/02/29 05:01:16;;;;;;;49.07;32.20;;;0.70;47.20;;;;;;5053911;28;20471;-72
2024/02/29 05:03:42;;;;;;;69.13;33.30;;;0.60;47.40;;;;;;5052720;28;20201;-70
2024/02/29 05:06:13;;;;;;;64.80;34.23;;;0.70;47.90;;;;;;5053823;28;20418;-69
2024/02/29 05:08:39;;;;;;;46.38;29.85;;;0.70;47.90;;;;;;5054075;28;20767;-70
2024/02/29 05:11:08;;;;;;;62.93;33.23;;;0.70;48.20;;;;;;5053961;28;20171;-70
2024/02/29 05:13:33;;;;;;;63.42;35.83;;;0.80;48.70;;;;;;5053315;28;20449;-69
2024/02/29 05:15:59;;;;;;;60.80;30.73;;;0.80;48.20;;;;;;5053857;28;20202;-70
2024/02/29 05:18:27;;;;;;;65.23;33.53;;;0.80;48.20;;;;;;5053875;28;20224;-71
2024/02/29 05:20:53;;;;;;;54.00;34.35;;;0.80;48.00;;;;;;5053868;28;20163;-71
2024/02/29 05:23:18;;;;;;;54.77;30.60;;;0.80;48.20;;;;;;5053344;28;20187;-72
2024/02/29 05:25:44;;;;;;;61.20;32.63;;;0.80;48.50;;;;;;5053904;28;20174;-69
2024/02/29 05:28:09;;;;;;;60.43;35.20;;;0.80;48.30;;;;;;5035868;28;20174;-70
2024/02/29 05:30:35;;;;;;;68.40;33.47;;;0.80;48.40;;;;;;5053538;28;20540;-70
2024/02/29 05:33:01;;;;;;;52.43;30.20;;;0.70;48.00;;;;;;5053299;28;20240;-71
2024/02/29 05:35:26;;;;;;;52.73;30.40;;;0.70;48.20;;;;;;5053710;28;20197;-70
2024/02/29 05:37:54;;;;;;;65.20;30.23;;;0.70;47.70;;;;;;5053792;28;20257;-70
2024/02/29 05:40:20;;;;;;;66.25;31.60;;;0.70;47.80;;;;;;5053509;28;20171;-70
2024/02/29 05:42:46;;;;;;;59.97;30.00;;;0.60;47.50;;;;;;5053158;28;20664;-70
2024/02/29 05:45:12;;;;;;;45.80;27.70;;;0.60;47.70;;;;;;5053334;28;20270;-71
2024/02/29 05:47:38;;;;;;;48.95;32.72;;;0.70;47.30;;;;;;5053423;28;20179;-70
2024/02/29 05:50:04;;;;;;;57.83;30.73;;;0.60;47.20;;;;;;5035606;28;20273;-72
2024/02/29 05:52:30;;;;;;;47.58;30.23;;;0.60;46.60;;;;;;5053239;28;20653;-70
2024/02/29 05:54:56;;;;;;;46.73;26.67;;;0.70;46.70;;;;;;5053163;28;20214;-71
2024/02/29 05:57:24;;;;;;;48.25;24.73;;;0.60;46.00;;;;;;5053355;28;20174;-70
2024/02/29 05:59:50;;;;;;;45.72;26.05;;;0.60;46.60;;;;;;5053315;28;20166;-72
2024/02/29 06:02:15;;;;;;;59.40;29.40;;;0.60;46.00;;;;;;5053273;28;20638;-72
2024/02/29 06:04:41;;;;;;;45.40;27.67;;;0.50;46.00;;;;;;5055105;28;20460;-72
2024/02/29 06:07:07;;;;;;;47.97;28.60;;;0.50;46.90;;;;;;5055496;28;20239;-71
2024/02/29 06:09:35;;;;;;;45.67;26.27;;;0.60;46.80;;;;;;5055126;28;20202;-71
2024/02/29 06:12:01;;;;;;;50.00;27.35;;;0.60;46.90;;;;;;5053222;28;20296;-72
2024/02/29 06:14:27;;;;;;;48.60;24.70;;;0.60;47.30;;;;;;5034745;28;20245;-71
2024/02/29 06:16:52;;;;;;;43.00;24.70;;;0.60;46.90;;;;;;5035379;28;20202;-73
2024/02/29 06:19:18;;;;;;;44.17;28.13;;;0.70;47.80;;;;;;5052886;28;20179;-70
2024/02/29 06:21:44;;;;;;;42.83;25.93;;;0.80;47.20;;;;;;5052798;28;20175;-73
2024/02/29 06:24:09;;;;;;;51.63;27.27;;;0.80;46.80;;;;;;5052765;28;20175;-72
2024/02/29 06:26:35;;;;;;;52.50;29.67;;;0.80;47.00;;;;;;5052818;28;20395;-71
2024/02/29 06:29:01;;;;;;;42.93;25.83;;;0.80;47.20;;;;;;5053012;28;20175;-72
2024/02/29 06:31:26;;;;;;;89.57;36.07;;;0.80;47.10;;;;;;5052819;28;20630;-72
2024/02/29 06:33:52;;;;;;;47.03;26.30;;;0.90;46.60;;;;;;5052532;28;20444;-72
2024/02/29 06:36:18;;;;;;;46.83;27.23;;;0.90;47.20;;;;;;5052451;28;20213;-71
2024/02/29 06:38:46;;;;;;;44.00;27.20;;;0.90;46.60;;;;;;5052687;28;20405;-70
2024/02/29 06:41:11;;;;;;;50.97;29.50;;;1.00;47.50;;;;;;5034660;28;20175;-70
2024/02/29 06:43:37;;;;;;;53.40;28.60;;;1.00;46.00;;;;;;5052061;28;20293;-71
2024/02/29 06:46:05;;;;;;;51.53;31.70;;;1.10;46.90;;;;;;5052345;28;20182;-71
2024/02/29 06:48:30;;;;;;;67.95;32.20;;;1.00;45.10;;;;;;5034719;28;20186;-71
2024/02/29 06:50:56;;;;;;;56.73;28.40;;;1.10;46.80;;;;;;5052434;28;20703;-72
2024/02/29 06:53:21;;;;;;;46.27;27.80;;;1.00;45.80;;;;;;5051807;28;20199;-70
2024/02/29 06:55:47;;;;;;;62.30;33.53;;;1.00;46.30;;;;;;5034246;28;20565;-70
2024/02/29 06:58:13;;;;;;;56.90;29.67;;;0.90;44.80;;;;;;5052185;28;20569;-69
2024/02/29 07:00:39;;;;;;;35.73;25.00;;;0.80;44.70;;;;;;5052335;28;20594;-70
2024/02/29 07:03:06;;;;;;;56.28;29.50;;;0.90;47.10;;;;;;5052124;28;20198;-70
2024/02/29 07:05:32;;;;;;;45.47;27.83;;;1.10;47.70;;;;;;5052405;28;20253;-69
2024/02/29 07:07:57;;;;;;;61.57;32.80;;;1.40;48.40;;;;;;5052186;28;20703;-72
2024/02/29 07:10:26;;;;;;;46.73;28.70;;;1.40;46.90;;;;;;5051437;28;20185;-73
2024/02/29 07:12:51;;;;;;;49.28;29.35;;;1.60;47.50;;;;;;5051443;28;20211;-72
2024/02/29 07:15:17;;;;;;;42.10;27.03;;;1.80;47.60;;;;;;5052041;28;20206;-71
2024/02/29 07:17:42;;;;;;;44.93;25.93;;;1.90;47.10;;;;;;5052630;28;20166;-73
2024/02/29 07:20:12;;;;;;;40.13;23.93;;;1.80;43.10;;;;;;5053541;28;20176;-71
2024/02/29 07:22:38;;;;;;;56.55;27.98;;;1.60;43.20;;;;;;5052993;28;20202;-71
2024/02/29 07:25:04;;;;;;;38.80;25.90;;;1.70;43.30;;;;;;5051544;28;20175;-70
2024/02/29 07:27:30;;;;;;;44.10;26.50;;;2.00;43.70;;;;;;5033548;28;20421;-70
2024/02/29 07:29:55;;;;;;;48.63;28.63;;;2.20;43.60;;;;;;5033888;28;20427;-71
2024/02/29 07:32:22;;;;;;;44.40;26.70;;;2.00;40.20;;;;;;5051455;28;20190;-71
2024/02/29 07:34:47;;;;;;;50.55;26.45;;;2.20;41.20;;;;;;5052422;28;20194;-70
2024/02/29 07:37:13;;;;;;;41.63;25.87;;;2.10;36.60;;;;;;5051527;28;20174;-72
2024/02/29 07:39:38;;;;;;;43.23;24.33;;;2.30;37.10;;;;;;5051623;28;20185;-70
2024/02/29 07:42:04;;;;;;;43.13;24.40;;;2.50;36.10;;;;;;5033566;28;20195;-70
2024/02/29 07:44:29;;;;;;;46.90;24.70;;;2.60;34.60;;;;;;5051829;28;20179;-70
2024/02/29 07:46:55;;;;;;;35.27;22.43;;;2.50;28.90;;;;;;5045228;28;20207;-71
2024/02/29 07:49:21;;;;;;;31.77;20.73;;;2.30;26.90;;;;;;5033860;28;20271;-70
2024/02/29 07:51:47;;;;;;;36.15;24.27;;;2.40;26.80;;;;;;5036899;28;20194;-72
2024/02/29 07:54:13;;;;;;;32.80;22.30;;;2.60;28.00;;;;;;5051149;28;20758;-70
2024/02/29 07:56:41;;;;;;;31.37;21.63;;;2.60;22.80;;;;;;5033927;28;20232;-70
2024/02/29 07:59:07;;;;;;;33.05;19.13;;;2.50;22.70;;;;;;5051825;28;20913;-71
2024/02/29 08:01:35;;;;;;;28.80;18.87;;;2.40;22.60;;;;;;5051351;28;20187;-71
2024/02/29 08:04:00;;;;;;;30.95;21.02;;;2.50;22.70;;;;;;5045023;28;20181;-70
2024/02/29 08:06:26;;;;;;;30.50;20.60;;;2.60;23.50;;;;;;5033530;28;20635;-71
2024/02/29 08:08:51;;;;;;;28.83;18.97;;;2.90;22.90;;;;;;5045966;28;20572;-72
2024/02/29 08:11:17;;;;;;;35.30;20.97;;;3.20;20.80;;;;;;5051770;28;20167;-71
2024/02/29 08:13:42;;;;;;;36.40;20.87;;;3.40;18.60;;;;;;5062822;28;20215;-70
2024/02/29 08:16:08;;;;;;;28.73;20.13;;;3.60;17.10;;;;;;5072206;28;20209;-71
2024/02/29 08:18:33;;;;;;;35.93;19.37;;;3.70;13.70;;;;;;5053782;28;20558;-70
2024/02/29 08:20:59;;;;;;;33.77;17.97;;;3.60;12.90;;;;;;5051110;28;20266;-73
2024/02/29 08:23:24;;;;;;;34.63;19.80;;;3.70;13.60;;;;;;5050620;28;20669;-71
2024/02/29 08:25:51;;;;;;;24.43;17.80;;;3.80;10.80;;;;;;5051135;28;20191;-72
2024/02/29 08:28:17;;;;;;;30.20;18.58;;;3.80;12.70;;;;;;5051987;28;20220;-70
2024/02/29 08:30:42;;;;;;;24.27;16.40;;;4.40;12.40;;;;;;5070860;28;20272;-71
2024/02/29 08:33:08;;;;;;;27.63;18.53;;;4.80;8.90;;;;;;5055086;28;20207;-72
2024/02/29 08:35:33;;;;;;;29.83;17.30;;;4.80;7.10;;;;;;5050826;28;20212;-71
2024/02/29 08:37:59;;;;;;;26.50;16.90;;;5.10;5.70;;;;;;5032915;28;20204;-71
2024/02/29 08:40:25;;;;;;;23.83;15.63;;;5.10;4.60;;;;;;5050373;28;20198;-71
2024/02/29 08:42:51;;;;;;;22.87;17.50;;;4.90;4.70;;;;;;5053871;28;20211;-71
2024/02/29 08:45:17;;;;;;;27.02;17.85;;;5.00;4.20;;;;;;5054437;28;20515;-70
2024/02/29 08:47:42;;;;;;;25.60;16.37;;;5.30;2.70;;;;;;5055492;28;20276;-71
2024/02/29 08:50:08;;;;;;;26.70;18.37;;;5.30;1.00;;;;;;5063210;28;20551;-73
2024/02/29 08:52:34;;;;;;;29.43;16.73;;;5.00;2.80;;;;;;5060890;28;20250;-72
2024/02/29 08:55:00;;;;;;;25.73;17.20;;;5.00;3.30;;;;;;5054227;28;20881;-71
2024/02/29 08:57:25;;;;;;;24.07;16.40;;;4.90;2.10;;;;;;5054253;28;20416;-72
2024/02/29 08:59:54;;;;;;;22.80;15.40;;;4.80;3.90;;;;;;5053824;28;20206;-72
2024/02/29 09:02:19;;;;;;;23.83;17.85;;;4.90;2.70;;;;;;5053164;28;20198;-71
2024/02/29 09:04:45;;;;;;;25.03;15.53;;;4.70;3.50;;;;;;5054280;28;20180;-72
2024/02/29 09:07:11;;;;;;;19.73;15.00;;;4.70;5.00;;;;;;5054359;28;20176;-71
2024/02/29 09:09:36;;;;;;;20.57;15.67;;;4.80;4.70;;;;;;5054378;28;20180;-71
2024/02/29 09:12:06;;;;;;;18.80;14.17;;;4.60;3.70;;;;;;5075901;22;20216;-69
2024/02/29 09:14:31;;;;;;;22.92;15.00;;;4.40;5.30;;;;;;5033686;28;20438;-69
2024/02/29 09:16:57;;;;;;;23.13;14.40;;;4.30;5.80;;;;;;5034371;28;20209;-69
2024/02/29 09:19:23;;;;;;;20.57;13.70;;;4.30;7.00;;;;;;5034080;28;20187;-68
2024/02/29 09:21:48;;;;;;;21.50;15.30;;;4.20;7.80;;;;;;5034492;28;20170;-68
2024/02/29 09:24:13;;;;;;;20.90;14.30;;;4.30;8.80;;;;;;5034483;28;20177;-70
2024/02/29 09:26:39;;;;;;;21.73;14.77;;;3.90;7.60;;;;;;5034351;28;20177;-68
2024/02/29 09:29:05;;;;;;;21.53;16.03;;;3.90;10.90;;;;;;5034358;28;20178;-71
2024/02/29 09:31:31;;;;;;;22.30;15.83;;;4.00;11.00;;;;;;5034253;28;20186;-71
2024/02/29 09:34:00;;;;;;;19.33;13.10;;;4.20;10.70;;;;;;5033684;28;20668;-70
2024/02/29 09:36:27;;;;;;;25.02;14.90;;;4.30;9.30;;;;;;5034126;28;20210;-68
2024/02/29 09:39:05;;;;;;;24.50;13.73;;;4.30;11.20;;;;;;5034135;28;20246;-71
2024/02/29 09:41:34;;;;;;;21.97;13.40;;;4.30;11.20;;;;;;5034431;28;20441;-69
2024/02/29 09:44:02;;;;;;;23.90;15.87;;;4.30;11.20;;;;;;5033806;28;20464;-71
2024/02/29 09:46:28;;;;;;;26.92;14.95;;;4.30;12.10;;;;;;5034714;28;20911;-70
2024/02/29 09:48:53;;;;;;;24.20;16.37;;;4.20;12.70;;;;;;5033740;28;20179;-69
2024/02/29 09:51:38;;;;;;;25.73;16.57;;;4.40;13.00;;;;;;5034067;28;20190;-71
2024/02/29 09:54:06;;;;;;;24.85;15.70;;;4.60;12.70;;;;;;5033463;28;20282;-69
2024/02/29 09:56:32;;;;;;;21.57;14.17;;;4.60;11.50;;;;;;5033811;28;20189;-70
2024/02/29 09:58:59;;;;;;;20.60;14.43;;;4.90;11.50;;;;;;5033640;28;20497;-69
2024/02/29 10:01:26;;;;;;;26.93;16.83;;;5.00;10.40;;;;;;5033729;28;20416;-70
2024/02/29 10:03:53;;;;;;;24.23;14.90;;;5.10;9.50;;;;;;5033117;28;20429;-69
2024/02/29 10:06:19;;;;;;;23.80;16.20;;;5.30;9.40;;;;;;5033356;28;21017;-69
2024/02/29 10:08:45;;;;;;;21.10;15.20;;;5.40;8.40;;;;;;5033127;28;20417;-69
2024/02/29 10:11:31;;;;;;;26.20;17.13;;;5.60;7.60;;;;;;5033334;28;20183;-74
2024/02/29 10:13:57;;;;;;;21.03;16.37;;;5.50;7.50;;;;;;5032941;28;20238;-73
2024/02/29 10:16:26;;;;;;;25.27;16.27;;;5.70;8.00;;;;;;5033092;28;20996;-69
2024/02/29 10:18:51;;;;;;;20.33;15.90;;;5.90;6.00;;;;;;5029327;28;20202;-70
2024/02/29 10:21:17;;;;;;;20.53;14.83;;;6.00;4.70;;;;;;5038015;28;20562;-69
2024/02/29 10:23:45;;;;;;;19.90;14.40;;;6.20;5.00;;;;;;5048708;28;20239;-68
2024/02/29 10:26:20;;;;;;;22.63;16.13;;;6.40;4.30;;;;;;5049368;28;20216;-70
2024/02/29 10:28:45;;;;;;;24.90;15.13;;;6.60;4.90;;;;;;5026413;28;20784;-71
2024/02/29 10:31:15;;;;;;;20.33;17.33;;;6.80;3.90;;;;;;5048806;28;20418;-70
2024/02/29 10:33:47;;;;;;;24.07;15.77;;;7.20;2.30;;;;;;5049067;28;20195;-69
2024/02/29 10:36:13;;;;;;;19.80;13.93;;;7.30;1.30;;;;;;5048815;28;20461;-69
2024/02/29 10:38:59;;;;;;;20.80;15.30;;;7.10;1.00;;;;;;5048488;28;20782;-71
2024/02/29 10:41:31;;;;;;;20.73;13.67;;;7.30;1.00;;;;;;5048646;28;20201;-70
2024/02/29 10:44:05;;;;;;;22.00;15.50;;;7.40;1.00;;;;;;5048618;28;20978;-68
2024/02/29 10:46:32;;;;;;;24.37;17.30;;;7.60;1.00;;;;;;5045143;28;20438;-69
2024/02/29 10:49:17;;;;;;;22.93;15.60;;;7.70;1.00;;;;;;5013043;28;20933;-69
2024/02/29 10:52:20;;;;;;;18.70;14.57;;;7.70;1.00;;;;;;5024191;28;20446;-71
2024/02/29 10:55:08;;;;;;;24.00;15.60;;;8.00;1.00;;;;;;5005894;28;20506;-71
2024/02/29 10:58:03;;;;;;;26.53;16.47;;;8.30;1.00;;;;;;5025248;28;20445;-71
2024/02/29 11:00:28;;;;;;;21.27;13.93;;;8.50;1.00;;;;;;5000617;28;20441;-69
2024/02/29 11:02:55;;;;;;;24.90;16.43;;;8.60;1.00;;;;;;5014146;28;20554;-69
2024/02/29 11:05:25;;;;;;;18.37;15.57;;;8.80;1.00;;;;;;5025424;28;20421;-69
2024/02/29 11:08:04;;;;;;;20.50;13.70;;;8.90;1.00;;;;;;5028836;28;20515;-72
2024/02/29 11:10:30;;;;;;;21.80;14.73;;;9.10;1.00;;;;;;5028339;28;20453;-70
2024/02/29 11:13:09;;;;;;;20.33;13.17;;;9.40;1.00;;;;;;5032465;28;20721;-71
2024/02/29 11:15:49;;;;;;;16.47;14.10;;;9.50;1.00;;;;;;5014262;28;20608;-70
2024/02/29 11:18:25;;;;;;;20.80;14.97;;;9.70;1.00;;;;;;5031579;28;20417;-69
2024/02/29 11:21:04;;;;;;;20.07;14.17;;;9.90;1.00;;;;;;5031951;28;20421;-69
2024/02/29 11:23:37;;;;;;;21.57;12.77;;;10.10;1.00;;;;;;5031402;28;20434;-70
2024/02/29 11:26:10;;;;;;;17.13;13.20;;;10.10;1.00;;;;;;5032030;28;20429;-69
2024/02/29 11:28:41;;;;;;;21.73;14.37;;;9.90;1.00;;;;;;5013953;28;20426;-69
2024/02/29 11:31:20;;;;;;;22.43;15.50;;;10.00;1.00;;;;;;5031661;28;20509;-70
2024/02/29 11:33:55;;;;;;;21.27;14.47;;;10.20;1.00;;;;;;5031430;28;20932;-69
2024/02/29 11:36:23;;;;;;;19.70;14.30;;;10.40;1.00;;;;;;5032483;28;20491;-68
2024/02/29 11:38:49;;;;;;;18.07;13.87;;;10.50;1.00;;;;;;5031579;28;20921;-68
2024/02/29 11:44:06;;;;;;;19.97;13.53;;;10.80;1.00;;;;;;5014154;28;20218;-70
2024/02/29 11:46:31;;;;;;;22.33;14.93;;;10.80;1.00;;;;;;5031776;28;20418;-71
2024/02/29 11:49:47;;;;;;;18.00;13.50;;;10.80;1.00;;;;;;5028183;28;20187;-70
2024/02/29 11:52:16;;;;;;;16.37;12.43;;;10.80;1.00;;;;;;4950249;28;20249;-69
2024/02/29 11:54:45;;;;;;;19.70;13.27;;;10.80;1.00;;;;;;5021658;28;20477;-69
2024/02/29 11:57:11;;;;;;;17.90;12.20;;;11.20;1.00;;;;;;5032664;28;20437;-68
2024/02/29 11:59:40;;;;;;;24.10;13.03;;;11.20;1.00;;;;;;5031421;28;20417;-73
2024/02/29 12:02:06;;;;;;;16.87;12.43;;;11.30;1.00;;;;;;5024079;28;20929;-69
2024/02/29 12:04:32;;;;;;;15.80;12.40;;;11.50;1.00;;;;;;5030715;28;20429;-69
2024/02/29 12:06:58;;;;;;;15.50;12.60;;;11.60;1.00;;;;;;5031759;28;20610;-68
2024/02/29 12:09:24;;;;;;;16.53;11.53;;;11.70;1.00;;;;;;5031753;28;20175;-69
2024/02/29 12:11:50;;;;;;;16.90;12.63;;;11.80;1.00;;;;;;5031174;28;20433;-69
2024/02/29 12:14:16;;;;;;;15.60;10.93;;;11.70;1.00;;;;;;5035371;28;20183;-70
2024/02/29 12:16:43;;;;;;;18.33;13.47;;;11.90;1.00;;;;;;5034984;28;20501;-69
2024/02/29 12:19:09;;;;;;;18.10;11.40;;;12.10;1.00;;;;;;5036026;28;20179;-69
2024/02/29 12:21:35;;;;;;;15.80;12.13;;;12.10;1.00;;;;;;5035435;28;20410;-70
2024/02/29 12:24:01;;;;;;;16.43;11.20;;;12.10;1.00;;;;;;5034848;28;20430;-70
2024/02/29 12:26:27;;;;;;;21.17;12.30;;;12.00;1.00;;;;;;5034561;28;20426;-70
2024/02/29 12:28:53;;;;;;;16.33;12.30;;;12.00;1.00;;;;;;5035107;28;20497;-69
2024/02/29 12:31:19;;;;;;;15.60;12.73;;;12.10;1.00;;;;;;5034874;28;20456;-69
2024/02/29 12:33:46;;;;;;;16.23;10.30;;;12.00;1.00;;;;;;5035039;28;20442;-69
2024/02/29 12:36:13;;;;;;;16.90;11.37;;;11.90;1.00;;;;;;5034579;28;20457;-70
2024/02/29 12:38:43;;;;;;;16.60;11.10;;;12.00;1.00;;;;;;5034797;28;20449;-69
2024/02/29 12:41:08;;;;;;;17.00;11.80;;;12.10;1.00;;;;;;5034673;28;20418;-69